Seawolf — WDE7235 — position and weather

sailwx.info

Track history (hours):
 
Tides and Currents Weather Stations Pressure Air Temp Water Temp Dewpoint Dewpoint Depression Visibility Wind Speed Wind Dir Waves Ship Positions

Oceanographic research ship Seawolf (United States)

Owner: School of Marine and Atmospheric Sciences, Stony Brook University, NY, Stony Brook, NY. More information available from US FCC via Universal Licensing System and Coast Guard Vessel Documentation Center.

Last reported at 2018-Jun-18 22:21 UTC. Time now 2018-Jun-19 01:27 UTC.
Position N 39°49' W 074°04'.

Length 24 m; draft 3.5 m.

Type: Other ship. MMSI: 367390740.

Date/timePositionNaut miles runAvg speedWind from/ knotsBaromVisibWave heightAir tempDewpointWater temp
2018-Jun-18 22:21N 39°49' W 074°04'2 3.7
2018-Jun-18 21:53N 39°48' W 074°05'1 2.9
2018-Jun-18 21:26N 39°46' W 074°04'4 7.8
2018-Jun-18 20:57N 39°45' W 073°60'7 3.1
2018-Jun-18 18:46N 39°38' W 073°58'22 4.3
2018-Jun-18 13:35N 39°19' W 074°12'1 4.0
2018-Jun-18 13:26N 39°18' W 074°12'3 7.0
2018-Jun-18 13:00N 39°18' W 074°16'5 9.0
2018-Jun-18 12:29N 39°18' W 074°22'4 9.2
2018-Jun-18 12:00N 39°18' W 074°28'1 1.9
2018-Jun-18 11:29N 39°18' W 074°29'4 5.0
2018-Jun-18 10:40N 39°20' W 074°24'2 7.8
2018-Jun-18 10:28N 39°22' W 074°24'1 2.9
2018-Jun-18 10:00N 39°23' W 074°25'0 0.0
2018-Jun-18 09:25N 39°23' W 074°25'0 0.0
2018-Jun-18 08:54N 39°23' W 074°25'0 0.0
2018-Jun-18 07:18N 39°23' W 074°25'0 0.0
2018-Jun-18 06:56N 39°23' W 074°25'0 0.0
2018-Jun-18 05:05N 39°23' W 074°25'0 0.0
2018-Jun-18 04:42N 39°23' W 074°25'12 0.3
2018-Jun-16 13:11N 39°12' W 074°32'1 3.5
2018-Jun-16 13:00N 39°13' W 074°32'3 6.7
2018-Jun-16 12:30N 39°15' W 074°29'4 8.2
2018-Jun-16 12:00N 39°19' W 074°27'2 3.0
2018-Jun-16 11:30N 39°20' W 074°25'1 2.3
2018-Jun-16 11:00N 39°20' W 074°24'2 4.2
2018-Jun-16 10:26N 39°23' W 074°25'0 0.0
2018-Jun-16 09:58N 39°23' W 074°25'0 0.0
2018-Jun-16 09:29N 39°23' W 074°25'0 0.0
2018-Jun-16 09:00N 39°23' W 074°25'19 1.5
2018-Jun-15 19:35N 39°35' W 074°06'6 2.2
2018-Jun-15 16:56N 39°41' W 074°06'54 1.1
2018-Jun-13 18:01N 40°35' W 074°02'111.2
2018-Jun-13 17:54N 40°36' W 074°02'4 9.8
2018-Jun-13 17:30N 40°40' W 074°01'510.2
2018-Jun-13 17:00N 40°44' W 073°58'  
2018-Jun-09 23:03N 41°05' W 072°42'0 9.7
2018-Jun-09 23:00N 41°05' W 072°42'5 9.9
2018-Jun-09 22:28N 41°07' W 072°35'4 9.0
2018-Jun-09 22:00N 41°08' W 072°30'4 8.5
2018-Jun-09 21:29N 41°09' W 072°24'  
Track history (hours):
 
Tides and Currents Weather Stations Pressure Air Temp Water Temp Dewpoint Dewpoint Depression Visibility Wind Speed Wind Dir Waves Ship Positions

Oceanographic research ship Seawolf (United States)

Owner: School of Marine and Atmospheric Sciences, Stony Brook University, NY, Stony Brook, NY. More information available from US FCC via Universal Licensing System and Coast Guard Vessel Documentation Center.

Last reported at 2018-Jun-18 22:21 UTC. Time now 2018-Jun-19 01:27 UTC.
Position N 39°49' W 074°04'.

Length 24 m; draft 3.5 m.

Type: Other ship. MMSI: 367390740.

Date/timePositionNaut miles runAvg speedWind from/ knotsBaromVisibWave heightAir tempDewpointWater temp
2018-Jun-18 22:21N 39°49' W 074°04'2 3.7
2018-Jun-18 21:53N 39°48' W 074°05'1 2.9
2018-Jun-18 21:26N 39°46' W 074°04'4 7.8
2018-Jun-18 20:57N 39°45' W 073°60'7 3.1
2018-Jun-18 18:46N 39°38' W 073°58'22 4.3
2018-Jun-18 13:35N 39°19' W 074°12'1 4.0
2018-Jun-18 13:26N 39°18' W 074°12'3 7.0
2018-Jun-18 13:00N 39°18' W 074°16'5 9.0
2018-Jun-18 12:29N 39°18' W 074°22'4 9.2
2018-Jun-18 12:00N 39°18' W 074°28'1 1.9
2018-Jun-18 11:29N 39°18' W 074°29'4 5.0
2018-Jun-18 10:40N 39°20' W 074°24'2 7.8
2018-Jun-18 10:28N 39°22' W 074°24'1 2.9
2018-Jun-18 10:00N 39°23' W 074°25'0 0.0
2018-Jun-18 09:25N 39°23' W 074°25'0 0.0
2018-Jun-18 08:54N 39°23' W 074°25'0 0.0
2018-Jun-18 07:18N 39°23' W 074°25'0 0.0
2018-Jun-18 06:56N 39°23' W 074°25'0 0.0
2018-Jun-18 05:05N 39°23' W 074°25'0 0.0
2018-Jun-18 04:42N 39°23' W 074°25'12 0.3
2018-Jun-16 13:11N 39°12' W 074°32'1 3.5
2018-Jun-16 13:00N 39°13' W 074°32'3 6.7
2018-Jun-16 12:30N 39°15' W 074°29'4 8.2
2018-Jun-16 12:00N 39°19' W 074°27'2 3.0
2018-Jun-16 11:30N 39°20' W 074°25'1 2.3
2018-Jun-16 11:00N 39°20' W 074°24'2 4.2
2018-Jun-16 10:26N 39°23' W 074°25'0 0.0
2018-Jun-16 09:58N 39°23' W 074°25'0 0.0
2018-Jun-16 09:29N 39°23' W 074°25'0 0.0
2018-Jun-16 09:00N 39°23' W 074°25'19 1.5
2018-Jun-15 19:35N 39°35' W 074°06'6 2.2
2018-Jun-15 16:56N 39°41' W 074°06'54 1.1
2018-Jun-13 18:01N 40°35' W 074°02'111.2
2018-Jun-13 17:54N 40°36' W 074°02'4 9.8
2018-Jun-13 17:30N 40°40' W 074°01'510.2
2018-Jun-13 17:00N 40°44' W 073°58'  
2018-Jun-09 23:03N 41°05' W 072°42'0 9.7
2018-Jun-09 23:00N 41°05' W 072°42'5 9.9
2018-Jun-09 22:28N 41°07' W 072°35'4 9.0
2018-Jun-09 22:00N 41°08' W 072°30'4 8.5
2018-Jun-09 21:29N 41°09' W 072°24'  

Dump ship's entire track history